Overview Statistics Trail Chart Weather Telemetry Raw packets
 

This is the latest recevied weather packets stored in our database for station/object EA3CH. If no packets are shown the sender has not sent any weather packets the latest 10 day(s).

<< 19 20 21 22 23 24 25 >>
Time Temp. Humidity Pressure Rain* Wind** Luminosity Snow
1788172206 27.78° C 49% 1021.2 hPa 0 mm - 0 W/m² -
1788171306 27.78° C 48% 1021.1 hPa 0 mm - 0 W/m² -
1788171303 27.78° C 55% 1021.2 hPa 0 mm - 0 W/m² -
1788170403 27.78° C 53% 1021.3 hPa 0 mm - 0 W/m² -
1788169506 26.67° C 52% 1021.1 hPa 0 mm - 0 W/m² -
1788169504 26.67° C 60% 1021.2 hPa 0 mm - 0 W/m² -
1788168606 25.56° C 53% 1021.1 hPa 0 mm - 0 W/m² -
1788168604 26.67° C 60% 1021.3 hPa 0 mm - 0 W/m² -
1788167704 26.67° C 57% 1021.3 hPa 0 mm - 0 W/m² -
1788166804 26.67° C 57% 1021.2 hPa 0 mm - 0 W/m² -
1788165903 25.56° C 55% 1021.1 hPa 0 mm - 0 W/m² -
1788165006 24.44° C 47% 1020.9 hPa 0 mm - 0 W/m² -
1788165004 25° C 55% 1021 hPa 0 mm - 0 W/m² -
1788164106 25° C 46% 1020.7 hPa 0 mm - 0 W/m² -
1788164103 25° C 54% 1020.9 hPa 0 mm - 0 W/m² -
1788163204 24.44° C 58% 1020.7 hPa 0 mm - 0 W/m² -
1788162304 23.33° C 62% 1020.6 hPa 0 mm - 0 W/m² -
1788161404 21.67° C 66% 1020.5 hPa 0 mm - 0 W/m² -
1788160506 23.33° C 53% 1020.3 hPa 0 mm - 0 W/m² -
1788159606 23.33° C 52% 1020.2 hPa 0 mm - 0 W/m² -
1788159604 20.56° C 68% 1020.4 hPa 0 mm - 0 W/m² -
1788158704 20° C 70% 1020.2 hPa 0 mm - 0 W/m² -
1788157805 22.22° C 54% 1019.9 hPa 0 mm - 0 W/m² -
1788157804 19.44° C 72% 1020 hPa 0 mm - 0 W/m² -
1788156905 21.67° C 55% 1019.7 hPa 0 mm - 0 W/m² -

* Rain latest hour (hover to see other rain measurements)
** Current wind speed in m/s (hover to see current wind gust speed)